Time;durP1;ratioP1;P1;durP2;ratioP2;P2;SDS_P1;SDS_P2;PMS_P1;PMS_P2;Temp;Humidity;BMP_temperature;BMP_pressure;BME280_temperature;BME280_humidity;BME280_pressure;Samples;Min_cycle;Max_cycle;Signal;HPM_P1;HPM_P2
2024/01/22 00:00:10;;;;;;;2.63;1.93;;;-1.10;99.90;;;;;;2046274;28;20655;-66
2024/01/22 00:01:11;;;;;;;4.38;2.20;;;-1.10;99.90;;;;;;2054155;28;20198;-66
2024/01/22 00:02:11;;;;;;;3.37;2.33;;;-1.00;99.90;;;;;;2054238;28;20210;-67
2024/01/22 00:03:12;;;;;;;2.93;1.93;;;-1.00;99.90;;;;;;2055130;28;20721;-67
2024/01/22 00:04:14;;;;;;;2.85;1.90;;;-1.00;99.90;;;;;;2061063;28;20264;-67
2024/01/22 00:05:15;;;;;;;4.27;2.23;;;-0.90;99.90;;;;;;2061249;28;20210;-66
2024/01/22 00:06:15;;;;;;;4.23;2.60;;;-1.00;99.90;;;;;;2063835;28;20186;-67
2024/01/22 00:07:16;;;;;;;5.07;3.03;;;-0.90;99.90;;;;;;2061650;28;20179;-67
2024/01/22 00:08:17;;;;;;;5.87;2.40;;;-0.90;99.90;;;;;;2053523;28;20651;-66
2024/01/22 00:09:18;;;;;;;2.93;1.97;;;-0.80;99.90;;;;;;2049064;28;20565;-67
2024/01/22 00:10:19;;;;;;;3.83;2.58;;;-0.70;99.80;;;;;;2052513;28;20179;-66
2024/01/22 00:11:20;;;;;;;5.37;2.63;;;-0.80;99.80;;;;;;2061600;28;20193;-67
2024/01/22 00:12:21;;;;;;;4.53;2.08;;;-0.80;99.80;;;;;;2061472;28;20234;-66
2024/01/22 00:13:21;;;;;;;4.17;2.60;;;-0.80;99.90;;;;;;2061017;28;20236;-67
2024/01/22 00:14:22;;;;;;;2.90;2.30;;;-0.80;99.90;;;;;;2070413;28;20226;-66
2024/01/22 00:15:23;;;;;;;3.33;2.60;;;-0.80;99.90;;;;;;2054135;28;20223;-66
2024/01/22 00:16:24;;;;;;;5.23;2.53;;;-0.80;99.80;;;;;;2053427;28;20226;-67
2024/01/22 00:17:24;;;;;;;2.65;2.10;;;-0.80;99.60;;;;;;2068611;28;20779;-67
2024/01/22 00:18:25;;;;;;;5.37;3.13;;;-0.80;99.60;;;;;;2061076;28;20284;-67
2024/01/22 00:19:26;;;;;;;4.50;2.90;;;-0.70;99.20;;;;;;2061124;28;20237;-66
2024/01/22 00:20:26;;;;;;;3.53;2.43;;;-0.70;99.20;;;;;;2053032;28;20591;-66
2024/01/22 00:21:27;;;;;;;3.87;2.30;;;-0.80;99.20;;;;;;2044277;28;20223;-67
2024/01/22 00:22:28;;;;;;;3.80;2.70;;;-0.80;99.10;;;;;;2060341;28;20234;-67
2024/01/22 00:23:29;;;;;;;6.67;3.10;;;-0.80;99.00;;;;;;2060806;28;20280;-66
2024/01/22 00:24:29;;;;;;;3.55;2.60;;;-0.80;98.80;;;;;;2057316;28;20241;-68
2024/01/22 00:25:30;;;;;;;4.10;2.80;;;-0.70;98.30;;;;;;2061302;28;20249;-67
2024/01/22 00:26:31;;;;;;;5.53;2.73;;;-0.70;98.20;;;;;;2061140;28;20309;-67
2024/01/22 00:27:31;;;;;;;4.03;2.53;;;-0.70;98.00;;;;;;2069988;28;20308;-67
2024/01/22 00:28:32;;;;;;;3.53;2.43;;;-0.80;98.20;;;;;;2069478;28;20739;-67
2024/01/22 00:29:32;;;;;;;6.37;2.63;;;-0.80;98.60;;;;;;2061475;28;20258;-67
2024/01/22 00:30:33;;;;;;;5.87;2.90;;;-0.80;98.50;;;;;;2061137;28;20249;-67
2024/01/22 00:31:34;;;;;;;4.77;3.07;;;-0.70;97.90;;;;;;2069762;28;20313;-67
2024/01/22 00:32:35;;;;;;;4.03;2.53;;;-0.70;97.70;;;;;;2069943;28;20265;-67
2024/01/22 00:33:35;;;;;;;4.50;2.60;;;-0.70;97.90;;;;;;2069204;28;20316;-67
2024/01/22 00:34:36;;;;;;;5.53;2.70;;;-0.70;98.40;;;;;;2061033;28;20279;-67
2024/01/22 00:35:37;;;;;;;4.73;2.83;;;-0.80;98.20;;;;;;2061654;28;20292;-68
2024/01/22 00:36:37;;;;;;;4.43;3.27;;;-0.70;98.60;;;;;;2061442;28;20651;-67
2024/01/22 00:37:38;;;;;;;3.73;2.37;;;-0.70;98.80;;;;;;2070176;28;20240;-67
2024/01/22 00:38:40;;;;;;;4.30;3.10;;;-0.80;98.70;;;;;;2060974;28;20240;-67
2024/01/22 00:39:41;;;;;;;4.55;3.67;;;-0.80;98.70;;;;;;2061418;28;20226;-67
2024/01/22 00:40:42;;;;;;;4.17;3.10;;;-0.80;98.80;;;;;;2062444;28;20314;-67
2024/01/22 00:41:43;;;;;;;4.87;3.37;;;-0.90;99.20;;;;;;2060501;28;20317;-66
2024/01/22 00:42:43;;;;;;;4.60;3.00;;;-0.90;99.60;;;;;;2053158;28;20708;-67
2024/01/22 00:43:44;;;;;;;4.33;3.20;;;-0.90;99.40;;;;;;2053490;28;20778;-68
2024/01/22 00:44:45;;;;;;;4.47;2.93;;;-0.90;99.50;;;;;;2053013;28;20286;-67
2024/01/22 00:45:45;;;;;;;5.97;3.53;;;-0.90;99.60;;;;;;2061565;28;20242;-67
2024/01/22 00:46:46;;;;;;;6.90;2.70;;;-0.90;99.80;;;;;;2070548;28;20699;-67
2024/01/22 00:47:47;;;;;;;4.43;2.97;;;-0.90;99.90;;;;;;2067864;28;20265;-67
2024/01/22 00:48:47;;;;;;;4.23;2.90;;;-0.90;99.90;;;;;;2062825;28;20713;-66
2024/01/22 00:49:48;;;;;;;3.47;2.53;;;-0.90;99.90;;;;;;2054956;28;20261;-67
2024/01/22 00:50:49;;;;;;;4.57;2.90;;;-0.90;99.90;;;;;;2061683;28;20257;-67
2024/01/22 00:51:50;;;;;;;5.17;3.47;;;-0.80;99.90;;;;;;2071072;28;20344;-67
2024/01/22 00:52:50;;;;;;;6.00;3.13;;;-0.80;99.90;;;;;;2072785;28;20650;-67
2024/01/22 00:53:51;;;;;;;4.17;2.80;;;-0.80;99.90;;;;;;2068292;28;20228;-67
2024/01/22 00:54:51;;;;;;;6.93;2.60;;;-0.80;99.90;;;;;;2062473;28;20236;-66
2024/01/22 00:55:52;;;;;;;6.97;2.83;;;-0.80;99.90;;;;;;2063092;28;20718;-67
2024/01/22 00:56:55;;;;;;;3.97;2.30;;;-0.80;99.90;;;;;;2059377;28;20627;-67
2024/01/22 00:57:56;;;;;;;3.60;2.53;;;-0.80;99.90;;;;;;2063089;28;20249;-67
2024/01/22 00:58:56;;;;;;;4.33;2.90;;;-0.70;99.90;;;;;;2071989;28;20763;-67
2024/01/22 00:59:57;;;;;;;4.57;3.10;;;-0.70;99.90;;;;;;2070457;28;20236;-67
2024/01/22 01:00:58;;;;;;;4.73;3.60;;;-0.70;99.80;;;;;;2070719;28;20226;-67
2024/01/22 01:01:59;;;;;;;5.88;3.83;;;-0.80;99.80;;;;;;2072696;28;20252;-66
2024/01/22 01:03:00;;;;;;;6.63;3.93;;;-0.80;99.80;;;;;;2072547;28;20622;-67
2024/01/22 01:04:00;;;;;;;6.23;3.77;;;-0.80;99.90;;;;;;2066646;28;20226;-66
2024/01/22 01:05:01;;;;;;;7.53;4.73;;;-0.90;99.90;;;;;;2070525;28;20198;-67
2024/01/22 01:06:02;;;;;;;6.73;4.00;;;-0.90;99.90;;;;;;2066868;28;20265;-66
2024/01/22 01:07:03;;;;;;;7.90;3.97;;;-1.00;99.90;;;;;;2061131;28;20265;-67
2024/01/22 01:08:04;;;;;;;6.27;4.53;;;-1.00;99.90;;;;;;2062580;28;20187;-67
2024/01/22 01:09:05;;;;;;;9.10;4.63;;;-1.00;99.90;;;;;;2069800;28;20757;-67
2024/01/22 01:10:06;;;;;;;6.47;4.20;;;-1.10;99.90;;;;;;2063356;28;20186;-67
2024/01/22 01:11:07;;;;;;;6.40;4.47;;;-1.20;99.90;;;;;;2063414;28;20187;-67
2024/01/22 01:12:08;;;;;;;6.23;4.60;;;-1.20;99.90;;;;;;2062883;28;20252;-67
2024/01/22 01:13:08;;;;;;;6.70;4.40;;;-1.10;99.90;;;;;;2062561;28;20178;-67
2024/01/22 01:14:09;;;;;;;7.43;4.50;;;-1.10;99.90;;;;;;2068062;28;20185;-66
2024/01/22 01:15:10;;;;;;;8.83;5.17;;;-1.10;99.90;;;;;;2068202;28;20201;-67
2024/01/22 01:16:11;;;;;;;6.97;4.23;;;-1.10;99.90;;;;;;2063001;28;20198;-67
2024/01/22 01:17:11;;;;;;;8.37;5.43;;;-1.20;99.90;;;;;;2063026;28;20423;-67
2024/01/22 01:18:12;;;;;;;8.13;5.27;;;-1.20;99.90;;;;;;2063180;28;20213;-67
2024/01/22 01:19:13;;;;;;;9.10;6.30;;;-1.20;99.90;;;;;;2055158;28;20187;-67
2024/01/22 01:20:14;;;;;;;8.53;4.70;;;-1.20;99.90;;;;;;2054746;28;20823;-67
2024/01/22 01:21:16;;;;;;;7.37;5.00;;;-1.10;99.90;;;;;;2060621;28;20266;-67
2024/01/22 01:22:18;;;;;;;5.80;4.22;;;-1.10;99.90;;;;;;2059272;28;20223;-66
2024/01/22 01:23:18;;;;;;;7.97;5.47;;;-1.10;99.90;;;;;;2058574;28;20217;-67
2024/01/22 01:24:19;;;;;;;8.40;5.37;;;-1.00;99.90;;;;;;2060442;28;20195;-66
2024/01/22 01:25:19;;;;;;;8.90;5.17;;;-1.00;99.90;;;;;;2061869;28;20261;-66
2024/01/22 01:26:20;;;;;;;8.67;4.90;;;-1.00;99.90;;;;;;2069714;28;20930;-67
2024/01/22 01:27:21;;;;;;;8.37;5.43;;;-1.00;99.90;;;;;;2067254;28;20230;-66
2024/01/22 01:28:23;;;;;;;9.07;4.87;;;-0.90;99.90;;;;;;2068743;28;20243;-67
2024/01/22 01:29:23;;;;;;;8.65;5.63;;;-0.90;99.90;;;;;;2069079;28;20221;-66
2024/01/22 01:30:24;;;;;;;6.80;4.40;;;-0.90;99.90;;;;;;2061017;28;20235;-66
2024/01/22 01:31:28;;;;;;;6.87;4.57;;;-0.90;99.90;;;;;;2062444;28;20289;-67
2024/01/22 01:32:29;;;;;;;8.93;5.05;;;-0.90;99.70;;;;;;2061993;28;20230;-67
2024/01/22 01:33:29;;;;;;;8.87;5.80;;;-0.90;99.80;;;;;;2061828;28;20237;-67
2024/01/22 01:34:30;;;;;;;7.70;5.33;;;-0.90;99.90;;;;;;2067274;28;20236;-66
2024/01/22 01:35:31;;;;;;;9.03;5.60;;;-1.00;99.90;;;;;;2062513;28;20233;-69
2024/01/22 01:36:31;;;;;;;7.87;5.73;;;-1.00;99.90;;;;;;2059536;28;20600;-67
2024/01/22 01:37:32;;;;;;;8.77;5.73;;;-1.00;99.90;;;;;;2070241;28;20312;-67
2024/01/22 01:38:33;;;;;;;10.70;5.50;;;-1.00;99.90;;;;;;2060501;28;20236;-67
2024/01/22 01:39:33;;;;;;;7.27;5.20;;;-1.00;99.90;;;;;;2062035;28;20316;-67
2024/01/22 01:40:34;;;;;;;12.53;4.70;;;-1.00;99.90;;;;;;2069774;28;20225;-67
2024/01/22 01:41:35;;;;;;;8.73;5.60;;;-1.00;99.90;;;;;;2070805;28;20232;-67
2024/01/22 01:42:35;;;;;;;8.60;5.33;;;-1.10;99.90;;;;;;2071347;28;20257;-67
2024/01/22 01:43:36;;;;;;;6.80;4.57;;;-1.10;99.90;;;;;;2069421;28;20709;-67
2024/01/22 01:44:39;;;;;;;6.60;4.57;;;-1.10;99.90;;;;;;2059013;28;20786;-67
2024/01/22 01:45:40;;;;;;;8.45;5.13;;;-1.00;99.90;;;;;;2061638;28;20308;-67
2024/01/22 01:46:41;;;;;;;9.63;6.03;;;-1.00;99.90;;;;;;2071763;28;20229;-67
2024/01/22 01:47:46;;;;;;;8.80;5.53;;;-1.10;99.90;;;;;;2061142;28;20229;-67
2024/01/22 01:48:47;;;;;;;8.70;5.53;;;-1.10;99.90;;;;;;2055161;28;20258;-67
2024/01/22 01:49:48;;;;;;;8.13;5.10;;;-1.20;99.90;;;;;;2060787;28;20246;-67
2024/01/22 01:50:49;;;;;;;8.63;5.63;;;-1.20;99.90;;;;;;2061579;28;20257;-67
2024/01/22 01:51:50;;;;;;;6.93;4.20;;;-1.20;99.90;;;;;;2061843;28;20320;-67
2024/01/22 01:52:52;;;;;;;9.43;5.10;;;-1.30;99.90;;;;;;2070977;28;20291;-67
2024/01/22 01:53:53;;;;;;;7.70;5.13;;;-1.30;99.90;;;;;;2061995;28;20214;-67
2024/01/22 01:54:54;;;;;;;8.27;5.13;;;-1.20;99.90;;;;;;2054611;28;20222;-67
2024/01/22 01:55:55;;;;;;;7.67;4.60;;;-1.20;99.90;;;;;;2054222;28;20258;-67
2024/01/22 01:56:56;;;;;;;6.95;4.28;;;-1.20;99.90;;;;;;2052171;28;20314;-67
2024/01/22 01:57:59;;;;;;;10.17;6.70;;;-1.20;99.80;;;;;;2060493;28;20751;-67
2024/01/22 01:59:01;;;;;;;11.80;6.32;;;-1.20;99.70;;;;;;2070460;28;20226;-67
2024/01/22 02:00:04;;;;;;;8.13;5.28;;;-1.20;99.50;;;;;;2069503;28;20694;-68
2024/01/22 02:01:06;;;;;;;7.53;4.63;;;-1.30;99.50;;;;;;2052670;28;20214;-67
2024/01/22 02:02:07;;;;;;;8.52;5.30;;;-1.30;99.70;;;;;;2045910;28;20291;-67
2024/01/22 02:03:09;;;;;;;8.17;5.43;;;-1.20;99.90;;;;;;2053646;28;20621;-68
2024/01/22 02:04:10;;;;;;;9.18;5.30;;;-1.40;99.90;;;;;;2053439;28;20198;-67
2024/01/22 02:05:13;;;;;;;9.80;6.27;;;-1.40;99.90;;;;;;2053868;28;20187;-68
2024/01/22 02:06:14;;;;;;;6.47;4.68;;;-1.50;99.90;;;;;;2053760;28;20226;-68
2024/01/22 02:07:15;;;;;;;8.17;5.30;;;-1.50;99.90;;;;;;2062977;28;20218;-67
2024/01/22 02:08:16;;;;;;;9.13;6.15;;;-1.50;99.90;;;;;;2072234;28;20558;-66
2024/01/22 02:09:17;;;;;;;9.17;5.80;;;-1.50;99.90;;;;;;2068134;28;20229;-67
2024/01/22 02:10:17;;;;;;;8.97;4.77;;;-1.50;99.90;;;;;;2070463;28;20201;-67
2024/01/22 02:11:22;;;;;;;11.60;6.33;;;-1.50;99.90;;;;;;2071201;28;20185;-68
2024/01/22 02:12:23;;;;;;;9.63;5.20;;;-1.50;99.90;;;;;;2062161;28;20296;-67
2024/01/22 02:13:26;;;;;;;7.78;5.53;;;-1.40;99.90;;;;;;2058038;28;20223;-66
2024/01/22 02:14:26;;;;;;;8.18;5.18;;;-1.50;99.90;;;;;;2049882;28;20227;-67
2024/01/22 02:15:27;;;;;;;7.60;4.80;;;-1.50;99.90;;;;;;2058190;28;20253;-67
2024/01/22 02:16:28;;;;;;;8.87;5.77;;;-1.50;99.90;;;;;;2067903;28;20249;-67
2024/01/22 02:17:28;;;;;;;8.90;5.27;;;-1.50;99.90;;;;;;2070875;28;20227;-67
2024/01/22 02:18:29;;;;;;;7.30;5.13;;;-1.60;99.90;;;;;;2062106;28;20237;-67
2024/01/22 02:19:30;;;;;;;9.10;5.87;;;-1.60;99.90;;;;;;2053871;28;20230;-67
2024/01/22 02:20:31;;;;;;;7.60;5.38;;;-1.60;99.90;;;;;;2064003;28;20280;-67
2024/01/22 02:21:32;;;;;;;9.60;5.37;;;-1.60;99.90;;;;;;2059316;28;20280;-68
2024/01/22 02:22:32;;;;;;;10.30;6.10;;;-1.60;99.90;;;;;;2059484;28;20709;-67
2024/01/22 02:23:33;;;;;;;9.03;5.87;;;-1.60;99.90;;;;;;2068870;28;20225;-67
2024/01/22 02:24:34;;;;;;;8.77;5.20;;;-1.60;99.90;;;;;;2056423;28;20991;-67
2024/01/22 02:25:34;;;;;;;7.13;5.17;;;-1.60;99.90;;;;;;2057683;28;20260;-67
2024/01/22 02:26:35;;;;;;;8.53;5.03;;;-1.50;99.90;;;;;;2050309;28;20258;-68
2024/01/22 02:27:36;;;;;;;9.13;5.87;;;-1.60;99.90;;;;;;2052709;28;20231;-67
2024/01/22 02:28:36;;;;;;;8.73;5.57;;;-1.50;99.90;;;;;;2067094;28;20320;-67
2024/01/22 02:29:37;;;;;;;9.50;5.93;;;-1.50;99.90;;;;;;2059141;28;20709;-67
2024/01/22 02:30:38;;;;;;;8.90;5.17;;;-1.60;99.90;;;;;;2059512;28;20260;-67
2024/01/22 02:31:38;;;;;;;9.03;5.33;;;-1.70;99.90;;;;;;2052793;28;20226;-67
2024/01/22 02:32:39;;;;;;;8.83;5.80;;;-1.70;99.90;;;;;;2052958;28;20643;-67
2024/01/22 02:33:40;;;;;;;8.20;5.10;;;-1.60;99.90;;;;;;2062627;28;20237;-68
2024/01/22 02:34:41;;;;;;;9.27;6.03;;;-1.70;99.90;;;;;;2070721;28;20231;-68
2024/01/22 02:35:42;;;;;;;9.30;5.57;;;-1.70;99.90;;;;;;2059480;28;20238;-67
2024/01/22 02:36:44;;;;;;;7.67;5.47;;;-1.50;99.90;;;;;;2059450;28;20261;-67
2024/01/22 02:37:45;;;;;;;8.82;5.82;;;-1.50;99.90;;;;;;2069650;28;20286;-67
2024/01/22 02:38:46;;;;;;;10.00;6.10;;;-1.50;99.90;;;;;;2069731;28;20654;-67
2024/01/22 02:39:46;;;;;;;8.33;5.40;;;-1.40;99.90;;;;;;2069994;28;20257;-67
2024/01/22 02:40:47;;;;;;;15.83;6.33;;;-1.50;99.90;;;;;;2059891;28;20690;-67
2024/01/22 02:41:48;;;;;;;10.33;6.30;;;-1.60;99.90;;;;;;2061203;28;20229;-67
2024/01/22 02:42:50;;;;;;;9.03;5.53;;;-1.60;99.90;;;;;;2070534;28;20220;-67
2024/01/22 02:43:51;;;;;;;9.07;6.13;;;-1.60;99.90;;;;;;2067407;28;20311;-67
2024/01/22 02:44:52;;;;;;;10.73;6.10;;;-1.70;99.90;;;;;;2069770;28;20735;-67
2024/01/22 02:45:52;;;;;;;7.47;5.70;;;-1.60;99.90;;;;;;2058358;28;20258;-67
2024/01/22 02:46:53;;;;;;;8.43;5.33;;;-1.50;99.90;;;;;;2056949;28;20297;-67
2024/01/22 02:47:54;;;;;;;9.10;5.80;;;-1.50;99.90;;;;;;2061285;28;20276;-67
2024/01/22 02:48:55;;;;;;;9.80;5.83;;;-1.60;99.90;;;;;;2053088;28;20838;-67
2024/01/22 02:49:55;;;;;;;8.25;5.43;;;-1.60;99.90;;;;;;2058733;28;20230;-67
2024/01/22 02:50:56;;;;;;;10.53;6.23;;;-1.50;99.90;;;;;;2069142;28;20225;-68
2024/01/22 02:51:57;;;;;;;10.10;6.70;;;-1.50;99.90;;;;;;2069235;28;20293;-67
2024/01/22 02:52:57;;;;;;;10.93;6.00;;;-1.50;99.90;;;;;;2059832;28;20256;-67
2024/01/22 02:53:58;;;;;;;7.20;5.03;;;-1.40;99.90;;;;;;2061917;28;20621;-67
2024/01/22 02:54:59;;;;;;;10.27;5.20;;;-1.50;99.90;;;;;;2066553;28;20234;-67
2024/01/22 02:56:00;;;;;;;9.10;5.63;;;-1.50;99.90;;;;;;2067032;28;20761;-68
2024/01/22 02:57:01;;;;;;;7.60;5.70;;;-1.70;99.90;;;;;;2061299;28;20749;-67
2024/01/22 02:58:02;;;;;;;9.85;5.28;;;-1.70;99.90;;;;;;2058503;28;20246;-68
2024/01/22 02:59:03;;;;;;;11.87;6.70;;;-1.70;99.90;;;;;;2068154;28;20558;-67
2024/01/22 03:00:07;;;;;;;7.85;4.90;;;-1.60;99.90;;;;;;2069249;28;20712;-68
2024/01/22 03:01:08;;;;;;;9.07;5.10;;;-1.60;99.90;;;;;;2070483;28;20190;-67
2024/01/22 03:02:10;;;;;;;9.53;5.57;;;-1.50;99.90;;;;;;2058195;28;20649;-67
2024/01/22 03:03:10;;;;;;;11.35;5.90;;;-1.50;99.90;;;;;;2052701;28;20203;-67
2024/01/22 03:04:11;;;;;;;8.47;5.50;;;-1.60;99.90;;;;;;2054209;28;20187;-67
2024/01/22 03:05:11;;;;;;;7.93;4.97;;;-1.60;99.90;;;;;;2052201;28;20195;-68
2024/01/22 03:06:13;;;;;;;8.20;5.23;;;-1.60;99.90;;;;;;2043252;28;20184;-68
2024/01/22 03:07:13;;;;;;;7.00;5.00;;;-1.60;99.90;;;;;;2046025;28;20198;-67
2024/01/22 03:08:14;;;;;;;7.93;5.00;;;-1.60;99.90;;;;;;2047494;28;20223;-68
2024/01/22 03:09:15;;;;;;;7.77;5.40;;;-1.60;99.90;;;;;;2064942;28;20190;-68
2024/01/22 03:10:15;;;;;;;9.57;5.50;;;-1.60;99.90;;;;;;2055376;28;20241;-67
2024/01/22 03:11:16;;;;;;;5.90;3.57;;;-1.60;99.90;;;;;;2054081;28;20225;-68
2024/01/22 03:12:17;;;;;;;8.95;5.65;;;-1.70;99.90;;;;;;2070597;28;20259;-68
2024/01/22 03:13:18;;;;;;;9.83;5.20;;;-1.70;99.90;;;;;;2061413;28;20236;-68
2024/01/22 03:14:19;;;;;;;8.43;4.77;;;-1.60;99.90;;;;;;2058106;28;20252;-68
2024/01/22 03:15:19;;;;;;;7.33;5.03;;;-1.60;99.90;;;;;;2060075;28;20193;-68
2024/01/22 03:16:20;;;;;;;9.10;5.47;;;-1.60;99.90;;;;;;2063335;28;20192;-68
2024/01/22 03:17:20;;;;;;;8.63;4.53;;;-1.50;99.90;;;;;;2062168;28;20246;-68
2024/01/22 03:18:21;;;;;;;6.07;4.53;;;-1.50;99.90;;;;;;2062900;28;20328;-68
2024/01/22 03:19:22;;;;;;;6.67;4.40;;;-1.50;99.90;;;;;;2063184;28;20225;-69
2024/01/22 03:20:22;;;;;;;6.07;3.97;;;-1.40;99.90;;;;;;2063728;28;20229;-68
2024/01/22 03:21:23;;;;;;;6.73;4.30;;;-1.30;99.90;;;;;;2061679;28;20253;-67
2024/01/22 03:22:24;;;;;;;7.60;4.80;;;-1.30;99.90;;;;;;2062168;28;20238;-68
2024/01/22 03:23:24;;;;;;;3.70;2.97;;;-1.30;99.90;;;;;;2070303;28;20240;-68
2024/01/22 03:24:25;;;;;;;5.63;3.80;;;-1.20;99.90;;;;;;2063772;28;20664;-68
2024/01/22 03:25:26;;;;;;;6.10;3.77;;;-1.20;99.90;;;;;;2061812;28;20240;-68
2024/01/22 03:26:26;;;;;;;5.13;3.90;;;-1.20;99.90;;;;;;2070216;28;20237;-68
2024/01/22 03:27:27;;;;;;;7.33;4.10;;;-1.20;99.90;;;;;;2059593;28;20229;-67
2024/01/22 03:28:28;;;;;;;4.07;2.17;;;-1.20;99.90;;;;;;2062060;28;20258;-68
2024/01/22 03:29:28;;;;;;;6.53;3.60;;;-1.00;99.90;;;;;;2071526;28;20596;-68
2024/01/22 03:30:29;;;;;;;4.47;2.67;;;-1.00;99.90;;;;;;2070144;28;20229;-67
2024/01/22 03:31:32;;;;;;;5.03;2.80;;;-0.80;99.90;;;;;;2060225;28;20222;-67
2024/01/22 03:32:33;;;;;;;2.53;2.03;;;-0.80;99.90;;;;;;2061251;28;20265;-69
2024/01/22 03:33:33;;;;;;;3.63;2.00;;;-0.80;99.90;;;;;;2053531;28;20648;-67
2024/01/22 03:34:34;;;;;;;3.27;2.10;;;-0.60;99.90;;;;;;2062106;28;20705;-69
2024/01/22 03:35:35;;;;;;;2.37;1.67;;;-0.50;99.90;;;;;;2060759;28;20233;-68
2024/01/22 03:36:36;;;;;;;2.43;1.67;;;-0.50;99.90;;;;;;2058219;28;20226;-67
2024/01/22 03:37:37;;;;;;;3.22;2.45;;;-0.40;99.90;;;;;;2060379;28;20688;-67
2024/01/22 03:38:38;;;;;;;2.53;1.60;;;-0.20;99.90;;;;;;2058516;28;20253;-67
2024/01/22 03:39:39;;;;;;;3.03;1.83;;;-0.20;99.90;;;;;;2069486;28;20595;-68
2024/01/22 03:40:39;;;;;;;3.33;1.93;;;-0.10;99.90;;;;;;2053993;28;20984;-68
2024/01/22 03:41:41;;;;;;;3.20;1.70;;;-0.10;99.90;;;;;;2053612;28;20249;-67
2024/01/22 03:42:41;;;;;;;2.05;1.55;;;0.20;99.90;;;;;;2061637;28;20319;-67
2024/01/22 03:43:43;;;;;;;2.33;1.40;;;0.30;99.90;;;;;;2061137;28;20284;-67
2024/01/22 03:44:44;;;;;;;3.30;2.25;;;0.60;99.90;;;;;;2055368;28;20226;-68
2024/01/22 03:45:44;;;;;;;2.50;1.50;;;0.60;99.90;;;;;;2054076;28;20283;-68
2024/01/22 03:46:45;;;;;;;2.93;2.23;;;0.70;99.90;;;;;;2062659;28;20237;-67
2024/01/22 03:47:46;;;;;;;2.13;1.60;;;0.80;99.90;;;;;;2062050;28;20234;-67
2024/01/22 03:48:47;;;;;;;3.28;1.63;;;0.90;99.90;;;;;;2064168;28;20233;-67
2024/01/22 03:49:47;;;;;;;3.30;1.93;;;1.00;99.90;;;;;;2060655;28;20231;-67
2024/01/22 03:50:50;;;;;;;3.03;2.20;;;1.10;99.90;;;;;;2054383;28;20226;-67
2024/01/22 03:51:51;;;;;;;3.63;2.13;;;1.10;99.90;;;;;;2058737;28;20237;-68
2024/01/22 03:52:51;;;;;;;3.90;1.80;;;1.00;99.90;;;;;;2067108;28;20597;-67
2024/01/22 03:53:52;;;;;;;3.27;2.20;;;1.00;99.90;;;;;;2068453;28;20230;-67
2024/01/22 03:54:53;;;;;;;2.73;1.97;;;0.90;99.90;;;;;;2065119;28;21453;-67
2024/01/22 03:55:54;;;;;;;2.17;1.47;;;0.90;99.90;;;;;;2051378;28;20231;-67
2024/01/22 03:56:54;;;;;;;2.40;1.73;;;1.00;99.90;;;;;;2051965;28;20220;-68
2024/01/22 03:57:55;;;;;;;12.63;7.10;;;1.20;99.90;;;;;;2060179;28;20223;-68
2024/01/22 03:58:56;;;;;;;6.63;3.37;;;1.50;99.90;;;;;;2060955;28;20219;-68
2024/01/22 03:59:56;;;;;;;2.80;1.70;;;1.70;99.90;;;;;;2060416;28;20223;-67
2024/01/22 04:00:57;;;;;;;2.80;1.57;;;1.90;99.90;;;;;;2053532;28;20250;-67
2024/01/22 04:01:58;;;;;;;2.00;1.80;;;2.20;99.90;;;;;;2060170;28;20323;-67
2024/01/22 04:02:58;;;;;;;3.53;2.20;;;2.40;98.80;;;;;;2068397;28;20220;-67
2024/01/22 04:03:59;;;;;;;2.67;2.10;;;2.50;98.00;;;;;;2060102;28;20225;-67
2024/01/22 04:05:00;;;;;;;2.50;1.80;;;2.50;98.10;;;;;;2053975;28;20230;-67
2024/01/22 04:06:01;;;;;;;2.60;1.27;;;2.60;97.60;;;;;;2060300;28;20763;-67
2024/01/22 04:07:02;;;;;;;1.95;1.30;;;2.90;97.70;;;;;;2060807;28;20208;-67
2024/01/22 04:08:03;;;;;;;1.30;1.13;;;3.00;96.70;;;;;;2060262;28;20608;-68
2024/01/22 04:09:04;;;;;;;2.50;1.23;;;3.40;95.80;;;;;;2060402;28;20231;-67
2024/01/22 04:10:05;;;;;;;1.87;1.40;;;3.50;94.00;;;;;;2061345;28;20197;-68
2024/01/22 04:11:06;;;;;;;1.52;1.25;;;3.50;93.80;;;;;;2060292;28;20193;-69
2024/01/22 04:12:07;;;;;;;1.80;1.50;;;3.60;93.40;;;;;;2058990;28;20210;-68
2024/01/22 04:13:07;;;;;;;2.73;2.03;;;3.80;92.30;;;;;;2065836;28;20229;-68
2024/01/22 04:14:08;;;;;;;4.30;2.50;;;3.80;91.60;;;;;;2059891;28;20713;-67
2024/01/22 04:15:09;;;;;;;2.83;1.80;;;3.80;90.40;;;;;;2056692;28;20191;-67
2024/01/22 04:16:13;;;;;;;0.73;0.70;;;3.60;91.00;;;;;;2064676;28;20191;-67
2024/01/22 04:17:15;;;;;;;0.47;0.47;;;3.90;92.20;;;;;;2055321;28;20709;-67
2024/01/22 04:18:15;;;;;;;1.42;1.00;;;4.00;91.30;;;;;;2047542;28;20246;-67
2024/01/22 04:19:16;;;;;;;1.20;0.90;;;4.50;88.60;;;;;;2062406;28;20324;-67
2024/01/22 04:20:17;;;;;;;1.53;1.30;;;4.60;84.60;;;;;;2062213;28;20245;-67
2024/01/22 04:21:17;;;;;;;0.73;0.60;;;4.80;81.70;;;;;;2051529;28;20191;-68
2024/01/22 04:22:18;;;;;;;0.50;0.50;;;4.90;81.30;;;;;;2058772;28;20232;-67
2024/01/22 04:23:19;;;;;;;0.50;0.50;;;5.10;79.60;;;;;;2057536;28;20682;-68
2024/01/22 04:24:19;;;;;;;0.60;0.60;;;5.30;78.30;;;;;;2053921;28;20191;-68
2024/01/22 04:25:20;;;;;;;0.53;0.50;;;5.50;76.20;;;;;;2063510;28;20192;-69
2024/01/22 04:26:21;;;;;;;0.40;0.40;;;5.70;74.10;;;;;;2071188;28;20222;-67
2024/01/22 04:27:21;;;;;;;0.30;0.30;;;6.10;69.10;;;;;;2066296;28;20593;-67
2024/01/22 04:28:22;;;;;;;0.67;0.57;;;6.30;66.80;;;;;;2071140;28;20224;-68
2024/01/22 04:29:23;;;;;;;0.87;0.30;;;6.40;65.70;;;;;;2060916;28;20288;-68
2024/01/22 04:30:23;;;;;;;0.80;0.53;;;6.60;62.30;;;;;;2051369;28;20234;-68
2024/01/22 04:31:24;;;;;;;0.23;0.23;;;6.70;61.50;;;;;;2061021;28;20235;-68
2024/01/22 04:32:25;;;;;;;0.20;0.20;;;6.80;60.30;;;;;;2061238;28;20316;-67
2024/01/22 04:33:25;;;;;;;0.50;0.43;;;6.90;56.70;;;;;;2061411;28;20230;-68
2024/01/22 04:34:26;;;;;;;0.60;0.30;;;7.00;55.80;;;;;;2058998;28;20793;-68
2024/01/22 04:35:27;;;;;;;0.60;0.37;;;7.20;53.90;;;;;;2052500;28;20271;-67
2024/01/22 04:36:28;;;;;;;2.40;0.40;;;7.20;53.20;;;;;;2060276;28;20232;-68
2024/01/22 04:37:28;;;;;;;0.73;0.23;;;7.30;52.90;;;;;;2067683;28;20650;-67
2024/01/22 04:38:30;;;;;;;0.30;0.20;;;7.40;51.50;;;;;;2061030;28;20268;-67
2024/01/22 04:39:30;;;;;;;2.53;0.88;;;7.50;51.00;;;;;;2060693;28;20263;-68
2024/01/22 04:40:31;;;;;;;0.50;0.50;;;7.50;51.10;;;;;;2061227;28;20237;-69
2024/01/22 04:41:32;;;;;;;0.40;0.40;;;7.50;52.00;;;;;;2060222;28;20724;-68
2024/01/22 04:42:32;;;;;;;0.40;0.40;;;7.50;49.50;;;;;;2061993;28;20319;-67
2024/01/22 04:43:33;;;;;;;0.30;0.30;;;7.50;49.10;;;;;;2068419;28;20282;-68
2024/01/22 04:44:34;;;;;;;0.60;0.50;;;7.60;49.60;;;;;;2052523;28;20230;-68
2024/01/22 04:45:34;;;;;;;0.73;0.63;;;7.60;48.80;;;;;;2052840;28;20234;-68
2024/01/22 04:46:35;;;;;;;0.80;0.50;;;7.60;49.00;;;;;;2069217;28;20233;-67
2024/01/22 04:47:36;;;;;;;0.63;0.63;;;7.60;48.80;;;;;;2060599;28;20269;-68
2024/01/22 04:48:37;;;;;;;0.40;0.40;;;7.60;48.80;;;;;;2050896;28;20309;-67
2024/01/22 04:49:38;;;;;;;0.50;0.40;;;7.60;48.40;;;;;;2058797;28;20269;-67
2024/01/22 04:50:38;;;;;;;0.30;0.30;;;7.60;48.20;;;;;;2059259;28;20279;-68
2024/01/22 04:51:45;;;;;;;0.60;0.37;;;7.60;48.50;;;;;;2060334;28;20269;-67
2024/01/22 04:52:45;;;;;;;0.52;0.50;;;7.60;48.00;;;;;;2061320;28;20230;-71
2024/01/22 04:53:46;;;;;;;0.80;0.80;;;7.60;47.40;;;;;;2060365;28;20253;-67
2024/01/22 04:54:47;;;;;;;1.60;1.10;;;7.60;47.30;;;;;;2068182;28;20263;-67
2024/01/22 04:55:48;;;;;;;0.98;0.60;;;7.50;47.30;;;;;;2069334;28;20235;-67
2024/01/22 04:56:50;;;;;;;0.37;0.37;;;7.60;45.90;;;;;;2060546;28;20656;-67
2024/01/22 04:57:51;;;;;;;0.60;0.60;;;7.70;45.40;;;;;;2052725;28;20714;-67
2024/01/22 04:58:52;;;;;;;0.50;0.50;;;7.70;45.40;;;;;;2060670;28;20260;-67
2024/01/22 04:59:52;;;;;;;0.60;0.60;;;7.70;46.10;;;;;;2058226;28;20241;-67
2024/01/22 05:00:53;;;;;;;0.67;0.50;;;7.80;45.40;;;;;;2055496;28;20548;-67
2024/01/22 05:01:54;;;;;;;0.60;0.60;;;7.70;45.10;;;;;;2048328;28;20233;-68
2024/01/22 05:02:54;;;;;;;0.97;0.50;;;7.70;45.70;;;;;;2055572;28;20315;-67
2024/01/22 05:03:55;;;;;;;0.33;0.33;;;7.70;45.30;;;;;;2067208;28;20225;-67
2024/01/22 05:05:01;;;;;;;0.50;0.50;;;7.80;45.20;;;;;;2068930;28;20221;-68
2024/01/22 05:06:02;;;;;;;0.43;0.43;;;7.80;45.20;;;;;;2045215;28;20226;-68
2024/01/22 05:07:03;;;;;;;0.73;0.50;;;7.90;45.40;;;;;;2049163;28;20226;-67
2024/01/22 05:08:04;;;;;;;1.00;0.50;;;7.80;45.10;;;;;;2060163;28;20301;-68
2024/01/22 05:09:06;;;;;;;0.30;0.30;;;7.80;45.20;;;;;;2059936;28;20251;-68
2024/01/22 05:10:13;;;;;;;0.20;0.20;;;7.80;45.00;;;;;;2060327;28;20378;-68
2024/01/22 05:11:13;;;;;;;0.50;0.50;;;7.80;44.70;;;;;;2058247;28;20194;-67
2024/01/22 05:12:14;;;;;;;0.53;0.40;;;7.90;44.80;;;;;;2059147;28;20338;-67
2024/01/22 05:13:15;;;;;;;0.97;0.43;;;7.90;44.20;;;;;;2043466;28;20727;-68
2024/01/22 05:14:15;;;;;;;0.30;0.23;;;7.90;44.70;;;;;;2052185;28;20649;-67
2024/01/22 05:15:16;;;;;;;0.43;0.40;;;7.90;44.80;;;;;;2056951;28;20222;-68
2024/01/22 05:16:17;;;;;;;0.30;0.30;;;7.90;44.50;;;;;;2049928;28;20190;-67
2024/01/22 05:17:18;;;;;;;0.30;0.30;;;7.90;44.30;;;;;;2050661;28;20286;-69
2024/01/22 05:18:19;;;;;;;0.83;0.50;;;7.90;44.70;;;;;;2052450;28;20187;-67